createdAt,value
2019-03-25T00:00:08.748Z,10.20
2019-03-25T00:00:48.913Z,10.20
2019-03-25T00:01:25.299Z,10.20
2019-03-25T00:01:59.813Z,10.10
2019-03-25T00:02:36.235Z,10.10
2019-03-25T00:03:10.860Z,10.10
2019-03-25T00:03:45.505Z,10.20
2019-03-25T00:04:20.021Z,10.20
2019-03-25T00:04:54.598Z,10.20
2019-03-25T00:05:29.150Z,10.20
2019-03-25T00:06:04.333Z,10.20
2019-03-25T00:06:39.122Z,10.20
2019-03-25T00:07:13.887Z,10.20
2019-03-25T00:07:48.467Z,10.20
2019-03-25T00:08:23.212Z,10.20
2019-03-25T00:09:04.779Z,10.20
2019-03-25T00:09:33.924Z,10.20
2019-03-25T00:10:08.682Z,10.20
2019-03-25T00:10:43.184Z,10.20
2019-03-25T00:11:17.810Z,10.20
2019-03-25T00:11:52.337Z,10.20
2019-03-25T00:12:26.908Z,10.20
2019-03-25T00:13:01.418Z,10.20
2019-03-25T00:13:35.942Z,10.20
2019-03-25T00:14:10.521Z,10.20
2019-03-25T00:14:45.127Z,10.20
2019-03-25T00:15:19.638Z,10.20
2019-03-25T00:15:56.405Z,10.20
2019-03-25T00:16:30.520Z,10.20
2019-03-25T00:17:05.128Z,10.20
2019-03-25T00:17:39.641Z,10.30
2019-03-25T00:18:14.226Z,10.30
2019-03-25T00:18:48.780Z,10.30
2019-03-25T00:19:23.350Z,10.20
2019-03-25T00:19:57.860Z,10.10
2019-03-25T00:20:32.361Z,10.10
2019-03-25T00:21:06.878Z,10.10
2019-03-25T00:21:41.385Z,10.10
2019-03-25T00:22:15.894Z,10.10
2019-03-25T00:22:50.462Z,10.10
2019-03-25T00:23:25.032Z,10.10
2019-03-25T00:23:59.644Z,10.20
2019-03-25T00:24:38.598Z,10.20
2019-03-25T00:25:10.368Z,10.10
2019-03-25T00:25:44.865Z,10.10
2019-03-25T00:26:19.710Z,10.10
2019-03-25T00:26:54.243Z,10.00
2019-03-25T00:27:28.761Z,10.10
2019-03-25T00:28:03.348Z,10.10
2019-03-25T00:28:37.965Z,10.10
2019-03-25T00:29:12.548Z,10.10
2019-03-25T00:29:47.142Z,10.10
2019-03-25T00:30:21.727Z,10.10
2019-03-25T00:30:56.236Z,10.10
2019-03-25T00:31:30.832Z,10.20
2019-03-25T00:32:05.332Z,10.20
2019-03-25T00:32:39.839Z,10.20
2019-03-25T00:33:14.353Z,10.20
2019-03-25T00:33:48.866Z,10.20
2019-03-25T00:34:23.502Z,10.20
2019-03-25T00:34:58.008Z,10.30
2019-03-25T00:35:32.517Z,10.30
2019-03-25T00:36:07.046Z,10.30
2019-03-25T00:36:41.614Z,10.30
2019-03-25T00:37:16.132Z,10.30
2019-03-25T00:37:51.022Z,10.30
2019-03-25T00:38:25.550Z,10.20
2019-03-25T00:39:00.442Z,10.20
2019-03-25T00:39:34.953Z,10.30
2019-03-25T00:40:09.648Z,10.30
2019-03-25T00:40:44.161Z,10.30
2019-03-25T00:41:18.664Z,10.20
2019-03-25T00:41:53.189Z,10.20
2019-03-25T00:42:27.705Z,10.20
2019-03-25T00:43:02.264Z,10.20
2019-03-25T00:43:37.038Z,10.20
2019-03-25T00:44:11.556Z,10.20
2019-03-25T00:44:46.067Z,10.20
2019-03-25T00:45:20.576Z,10.20
2019-03-25T00:45:55.136Z,10.20
2019-03-25T00:46:29.671Z,10.10
2019-03-25T00:47:04.231Z,10.10
2019-03-25T00:47:38.770Z,10.10
2019-03-25T00:48:13.324Z,10.10
2019-03-25T00:48:47.833Z,10.10
2019-03-25T00:49:22.360Z,10.10
2019-03-25T00:49:56.852Z,10.10
2019-03-25T00:50:31.365Z,10.10
2019-03-25T00:51:05.869Z,10.10
2019-03-25T00:51:40.412Z,10.10
2019-03-25T00:52:14.909Z,10.10
2019-03-25T00:52:49.434Z,10.10
2019-03-25T00:53:23.932Z,10.20
2019-03-25T00:53:58.449Z,10.20
2019-03-25T00:54:32.957Z,10.10
2019-03-25T00:55:07.899Z,10.20
2019-03-25T00:55:42.409Z,10.20
2019-03-25T00:56:16.910Z,10.20
2019-03-25T00:56:51.674Z,10.20
2019-03-25T00:57:26.211Z,10.20
2019-03-25T00:58:00.719Z,10.20
2019-03-25T00:58:35.408Z,10.20
2019-03-25T00:59:10.001Z,10.10
2019-03-25T00:59:44.573Z,10.10
2019-03-25T01:00:19.464Z,10.20
2019-03-25T01:00:53.969Z,10.20
2019-03-25T01:01:28.510Z,10.20
2019-03-25T01:02:03.107Z,10.20
2019-03-25T01:02:37.689Z,10.20
2019-03-25T01:03:12.297Z,10.20
2019-03-25T01:03:46.813Z,10.20
2019-03-25T01:04:21.356Z,10.20
2019-03-25T01:04:55.863Z,10.20
2019-03-25T01:05:30.390Z,10.20
2019-03-25T01:06:05.067Z,10.20
2019-03-25T01:06:39.572Z,10.20
2019-03-25T01:07:14.159Z,10.20
2019-03-25T01:07:48.798Z,10.20
2019-03-25T01:08:23.308Z,10.20
2019-03-25T01:08:57.849Z,10.20
2019-03-25T01:09:32.351Z,10.30
2019-03-25T01:10:10.080Z,10.30
2019-03-25T01:10:44.591Z,10.30
2019-03-25T01:11:19.164Z,10.30
2019-03-25T01:11:53.684Z,10.30
2019-03-25T01:12:28.260Z,10.30
2019-03-25T01:13:02.773Z,10.30
2019-03-25T01:13:37.354Z,10.30
2019-03-25T01:14:11.938Z,10.30
2019-03-25T01:14:46.490Z,10.30
2019-03-25T01:15:20.993Z,10.20
2019-03-25T01:15:55.512Z,10.30
2019-03-25T01:16:30.018Z,10.30
2019-03-25T01:17:04.542Z,10.30
2019-03-25T01:17:39.122Z,10.30
2019-03-25T01:18:17.070Z,10.30
2019-03-25T01:18:49.894Z,10.30
2019-03-25T01:19:24.462Z,10.30
2019-03-25T01:19:59.021Z,10.30
2019-03-25T01:20:33.639Z,10.30
2019-03-25T01:21:08.188Z,10.30
2019-03-25T01:21:42.714Z,10.30
2019-03-25T01:22:17.226Z,10.40
2019-03-25T01:22:51.852Z,10.40
2019-03-25T01:23:26.354Z,10.40
2019-03-25T01:24:00.916Z,10.40
2019-03-25T01:24:35.416Z,10.40
2019-03-25T01:25:10.062Z,10.30
2019-03-25T01:25:44.578Z,10.40
2019-03-25T01:26:19.421Z,10.40
2019-03-25T01:26:53.941Z,10.40
2019-03-25T01:27:28.592Z,10.30
2019-03-25T01:28:03.173Z,10.30
2019-03-25T01:28:37.682Z,10.30
2019-03-25T01:29:12.255Z,10.30
2019-03-25T01:29:46.835Z,10.40
2019-03-25T01:30:21.347Z,10.40
2019-03-25T01:30:55.857Z,10.30
2019-03-25T01:31:30.397Z,10.40
2019-03-25T01:32:05.068Z,10.40
2019-03-25T01:32:39.631Z,10.30
2019-03-25T01:33:14.146Z,10.40
2019-03-25T01:33:48.667Z,10.40
2019-03-25T01:34:23.244Z,10.30
2019-03-25T01:34:57.752Z,10.40
2019-03-25T01:35:32.335Z,10.30
2019-03-25T01:36:06.848Z,10.30
2019-03-25T01:36:41.357Z,10.40
2019-03-25T01:37:15.868Z,10.30
2019-03-25T01:37:50.403Z,10.40
2019-03-25T01:38:24.993Z,10.30
2019-03-25T01:38:59.855Z,10.30
2019-03-25T01:39:34.365Z,10.40
2019-03-25T01:40:09.110Z,10.30
2019-03-25T01:40:43.625Z,10.30
2019-03-25T01:41:18.409Z,10.30
2019-03-25T01:41:52.985Z,10.30
2019-03-25T01:42:27.489Z,10.30
2019-03-25T01:43:02.026Z,10.20
2019-03-25T01:43:36.701Z,10.20
2019-03-25T01:44:11.208Z,10.20
2019-03-25T01:44:45.796Z,10.20
2019-03-25T01:45:20.304Z,10.20
2019-03-25T01:45:54.916Z,10.10
2019-03-25T01:46:29.424Z,10.10
2019-03-25T01:47:03.938Z,10.10
2019-03-25T01:47:38.546Z,10.10
2019-03-25T01:48:13.054Z,10.10
2019-03-25T01:48:47.561Z,10.10
2019-03-25T01:49:22.119Z,10.10
2019-03-25T01:49:56.795Z,10.10
2019-03-25T01:50:31.297Z,10.20
2019-03-25T01:51:05.910Z,10.20
2019-03-25T01:51:40.489Z,10.10
2019-03-25T01:52:15.004Z,10.20
2019-03-25T01:52:49.536Z,10.10
2019-03-25T01:53:24.040Z,10.10
2019-03-25T01:53:58.650Z,10.10
2019-03-25T01:54:33.157Z,10.10
2019-03-25T01:55:13.493Z,10.10
2019-03-25T01:55:43.959Z,10.10
2019-03-25T01:56:18.461Z,10.10
2019-03-25T01:56:52.965Z,10.20
2019-03-25T01:57:27.483Z,10.10
2019-03-25T01:58:01.980Z,10.20
2019-03-25T01:58:36.472Z,10.10
2019-03-25T01:59:10.988Z,10.20
2019-03-25T01:59:45.648Z,10.20
2019-03-25T02:00:20.154Z,10.10
2019-03-25T02:00:54.856Z,10.10
2019-03-25T02:01:30.213Z,10.10
2019-03-25T02:02:04.718Z,10.10
2019-03-25T02:02:39.217Z,10.10
2019-03-25T02:03:13.726Z,10.10
2019-03-25T02:03:48.562Z,10.10
2019-03-25T02:04:23.071Z,10.00
2019-03-25T02:04:57.664Z,10.00
2019-03-25T02:05:32.229Z,10.00
2019-03-25T02:06:06.740Z,10.00
2019-03-25T02:06:41.273Z,10.00
2019-03-25T02:07:15.853Z,10.00
2019-03-25T02:07:50.399Z,10.00
2019-03-25T02:08:24.973Z,10.00
2019-03-25T02:08:59.558Z,10.00
2019-03-25T02:09:34.092Z,10.10
2019-03-25T02:10:10.248Z,10.00
2019-03-25T02:10:44.819Z,10.10
2019-03-25T02:11:19.335Z,10.00
2019-03-25T02:11:53.856Z,10.00
2019-03-25T02:12:28.433Z,10.00
2019-03-25T02:13:02.937Z,10.00
2019-03-25T02:13:37.441Z,10.10
2019-03-25T02:14:11.944Z,10.10
2019-03-25T02:14:46.463Z,10.10
2019-03-25T02:15:21.029Z,10.00
2019-03-25T02:15:55.528Z,10.10
2019-03-25T02:16:30.043Z,10.00
2019-03-25T02:17:04.610Z,10.00
2019-03-25T02:17:39.160Z,10.00
2019-03-25T02:18:13.669Z,10.00
2019-03-25T02:18:48.255Z,10.00
2019-03-25T02:19:22.897Z,10.00
2019-03-25T02:19:57.408Z,10.00
2019-03-25T02:20:31.941Z,10.00
2019-03-25T02:21:06.530Z,10.00
2019-03-25T02:21:41.037Z,10.00
2019-03-25T02:22:15.549Z,10.00
2019-03-25T02:22:50.242Z,9.90
2019-03-25T02:23:25.194Z,9.90
2019-03-25T02:23:59.868Z,9.90
2019-03-25T02:24:34.402Z,9.90
2019-03-25T02:25:09.017Z,9.80
2019-03-25T02:25:43.524Z,9.80
2019-03-25T02:26:18.027Z,9.80
2019-03-25T02:26:52.524Z,9.70
2019-03-25T02:27:27.050Z,9.70
2019-03-25T02:28:01.694Z,9.70
2019-03-25T02:28:55.588Z,9.70
2019-03-25T02:29:30.140Z,9.80
2019-03-25T02:30:08.319Z,9.70
2019-03-25T02:30:42.853Z,9.60
2019-03-25T02:31:17.356Z,9.60
2019-03-25T02:31:51.849Z,9.60
2019-03-25T02:32:26.361Z,9.60
2019-03-25T02:33:00.877Z,9.70
2019-03-25T02:33:35.363Z,9.70
2019-03-25T02:34:09.882Z,9.70
2019-03-25T02:34:44.654Z,9.70
2019-03-25T02:35:19.234Z,9.80
2019-03-25T02:35:53.736Z,9.80
2019-03-25T02:36:28.240Z,9.80
2019-03-25T02:37:02.876Z,9.80
2019-03-25T02:37:37.602Z,9.80
2019-03-25T02:38:12.243Z,9.80
2019-03-25T02:38:46.955Z,9.80
2019-03-25T02:39:21.490Z,9.80
2019-03-25T02:39:56.146Z,9.80
2019-03-25T02:40:30.736Z,9.80
2019-03-25T02:41:05.295Z,9.80
2019-03-25T02:41:39.805Z,9.70
2019-03-25T02:42:14.464Z,9.70
2019-03-25T02:42:49.056Z,9.70
2019-03-25T02:43:23.626Z,9.60
2019-03-25T02:43:58.136Z,9.60
2019-03-25T02:44:32.700Z,9.60
2019-03-25T02:45:07.847Z,9.60
2019-03-25T02:45:42.441Z,9.60
2019-03-25T02:46:17.234Z,9.60
2019-03-25T02:46:51.805Z,9.60
2019-03-25T02:47:26.296Z,9.60
2019-03-25T02:48:00.802Z,9.50
2019-03-25T02:48:35.390Z,9.50
2019-03-25T02:49:09.997Z,9.50
2019-03-25T02:49:45.463Z,9.50
2019-03-25T02:50:20.147Z,9.60
2019-03-25T02:50:54.964Z,9.60
2019-03-25T02:51:29.481Z,9.60
2019-03-25T02:52:03.981Z,9.60
2019-03-25T02:52:38.473Z,9.60
2019-03-25T02:53:13.003Z,9.60
2019-03-25T02:53:47.586Z,9.50
2019-03-25T02:54:22.088Z,9.60
2019-03-25T02:54:56.650Z,9.50
2019-03-25T02:55:41.475Z,9.50
2019-03-25T02:56:07.467Z,9.50
2019-03-25T02:56:41.982Z,9.50
2019-03-25T02:57:16.555Z,9.50
2019-03-25T02:57:51.053Z,9.50
2019-03-25T02:58:25.558Z,9.50
2019-03-25T02:59:00.422Z,9.60
2019-03-25T02:59:34.921Z,9.60
2019-03-25T03:00:11.422Z,9.60
2019-03-25T03:00:45.980Z,9.60
2019-03-25T03:01:20.483Z,9.60
2019-03-25T03:01:55.064Z,9.60
2019-03-25T03:02:29.669Z,9.70
2019-03-25T03:03:05.222Z,9.60
2019-03-25T03:03:39.778Z,9.60
2019-03-25T03:04:14.296Z,9.60
2019-03-25T03:04:48.938Z,9.60
2019-03-25T03:05:23.502Z,9.50
2019-03-25T03:05:58.004Z,9.50
2019-03-25T03:06:32.539Z,9.50
2019-03-25T03:07:07.110Z,9.50
2019-03-25T03:07:41.603Z,9.50
2019-03-25T03:08:16.136Z,9.50
2019-03-25T03:08:50.653Z,9.50
2019-03-25T03:09:25.249Z,9.50
2019-03-25T03:09:59.807Z,9.40
2019-03-25T03:10:34.317Z,9.40
2019-03-25T03:11:09.237Z,9.30
2019-03-25T03:11:43.745Z,9.30
2019-03-25T03:12:18.598Z,9.30
2019-03-25T03:12:53.103Z,9.30
2019-03-25T03:13:27.709Z,9.30
2019-03-25T03:14:02.311Z,9.30
2019-03-25T03:14:36.878Z,9.30
2019-03-25T03:15:11.520Z,9.30
2019-03-25T03:15:46.013Z,9.30
2019-03-25T03:16:20.513Z,9.20
2019-03-25T03:16:55.026Z,9.20
2019-03-25T03:17:29.519Z,9.20
2019-03-25T03:18:04.378Z,9.20
2019-03-25T03:18:38.882Z,9.20
2019-03-25T03:19:13.454Z,9.20
2019-03-25T03:19:47.987Z,9.20
2019-03-25T03:20:22.562Z,9.20
2019-03-25T03:20:57.084Z,9.20
2019-03-25T03:21:31.586Z,9.20
2019-03-25T03:22:06.172Z,9.10
2019-03-25T03:22:40.757Z,9.10
2019-03-25T03:23:15.361Z,9.00
2019-03-25T03:23:49.884Z,9.00
2019-03-25T03:24:24.452Z,9.00
2019-03-25T03:24:59.012Z,9.00
2019-03-25T03:25:33.645Z,8.90
2019-03-25T03:26:08.330Z,8.90
2019-03-25T03:26:42.975Z,8.90
2019-03-25T03:27:17.477Z,9.00
2019-03-25T03:27:52.041Z,8.90
2019-03-25T03:28:26.600Z,8.90
2019-03-25T03:29:01.120Z,8.90
2019-03-25T03:29:35.737Z,8.90
2019-03-25T03:30:10.806Z,8.90
2019-03-25T03:30:45.706Z,8.90
2019-03-25T03:31:20.234Z,8.90
2019-03-25T03:31:54.826Z,8.90
2019-03-25T03:32:29.378Z,8.90
2019-03-25T03:33:04.981Z,8.80
2019-03-25T03:33:39.480Z,8.80
2019-03-25T03:34:13.975Z,8.80
2019-03-25T03:34:48.497Z,8.80
2019-03-25T03:35:23.077Z,8.80
2019-03-25T03:35:57.629Z,8.80
2019-03-25T03:36:32.131Z,8.80
2019-03-25T03:37:06.696Z,8.80
2019-03-25T03:37:41.538Z,8.80
2019-03-25T03:38:16.044Z,8.80
2019-03-25T03:38:50.608Z,8.80
2019-03-25T03:39:25.148Z,8.90
2019-03-25T03:39:59.697Z,8.90
2019-03-25T03:40:34.444Z,8.90
2019-03-25T03:41:09.062Z,8.90
2019-03-25T03:41:43.618Z,8.90
2019-03-25T03:42:18.192Z,9.00
2019-03-25T03:42:53.683Z,9.00
2019-03-25T03:43:28.237Z,9.00
2019-03-25T03:44:02.826Z,9.00
2019-03-25T03:44:37.392Z,9.00
2019-03-25T03:45:12.699Z,9.00
2019-03-25T03:45:47.276Z,9.00
2019-03-25T03:46:21.787Z,9.00
2019-03-25T03:46:56.285Z,8.90
2019-03-25T03:47:30.788Z,8.90
2019-03-25T03:48:05.373Z,8.90
2019-03-25T03:48:39.916Z,8.90
2019-03-25T03:49:14.546Z,8.90
2019-03-25T03:49:49.058Z,8.90
2019-03-25T03:50:25.373Z,8.80
2019-03-25T03:51:00.957Z,8.80
2019-03-25T03:51:35.463Z,8.80
2019-03-25T03:52:09.955Z,8.80
2019-03-25T03:52:45.001Z,8.80
2019-03-25T03:53:19.642Z,8.80
2019-03-25T03:53:54.217Z,8.80
2019-03-25T03:54:28.779Z,8.80
2019-03-25T03:55:04.186Z,8.80
2019-03-25T03:55:39.852Z,8.80
2019-03-25T03:56:14.786Z,8.70
2019-03-25T03:56:51.032Z,8.70
2019-03-25T03:57:25.936Z,8.70
2019-03-25T03:58:00.514Z,8.60
2019-03-25T03:58:35.091Z,8.60
2019-03-25T03:59:09.692Z,8.60
2019-03-25T03:59:44.451Z,8.60
2019-03-25T04:00:28.169Z,8.60
2019-03-25T04:01:02.733Z,8.60
2019-03-25T04:01:37.249Z,8.60
2019-03-25T04:02:12.629Z,8.60
2019-03-25T04:02:47.217Z,8.70
2019-03-25T04:03:21.709Z,8.70
2019-03-25T04:03:56.211Z,8.70
2019-03-25T04:04:30.720Z,8.70
2019-03-25T04:05:05.225Z,8.70
2019-03-25T04:05:39.797Z,8.70
2019-03-25T04:06:14.949Z,8.70
2019-03-25T04:06:49.469Z,8.70
2019-03-25T04:07:23.967Z,8.60
2019-03-25T04:07:58.476Z,8.60
2019-03-25T04:08:33.027Z,8.60
2019-03-25T04:09:07.600Z,8.60
2019-03-25T04:09:42.602Z,8.60
2019-03-25T04:10:17.110Z,8.60
2019-03-25T04:10:51.700Z,8.70
2019-03-25T04:11:26.208Z,8.60
2019-03-25T04:12:00.776Z,8.70
2019-03-25T04:12:35.345Z,8.70
2019-03-25T04:13:09.847Z,8.70
2019-03-25T04:13:44.613Z,8.60
2019-03-25T04:14:19.131Z,8.60
2019-03-25T04:14:53.687Z,8.50
2019-03-25T04:15:30.254Z,8.50
2019-03-25T04:16:04.755Z,8.50
2019-03-25T04:16:39.258Z,8.50
2019-03-25T04:17:13.772Z,8.50
2019-03-25T04:17:48.313Z,8.50
2019-03-25T04:18:22.816Z,8.50
2019-03-25T04:18:57.316Z,8.60
2019-03-25T04:19:31.855Z,8.50
2019-03-25T04:20:07.922Z,8.50
2019-03-25T04:20:42.492Z,8.60
2019-03-25T04:21:17.004Z,8.50
2019-03-25T04:21:51.599Z,8.50
2019-03-25T04:22:26.173Z,8.50
2019-03-25T04:23:00.732Z,8.50
2019-03-25T04:23:35.309Z,8.50
2019-03-25T04:24:09.889Z,8.60
2019-03-25T04:24:44.471Z,8.50
2019-03-25T04:25:19.268Z,8.50
2019-03-25T04:25:53.839Z,8.50
2019-03-25T04:26:29.561Z,8.50
2019-03-25T04:27:04.980Z,8.50
2019-03-25T04:27:39.591Z,8.50
2019-03-25T04:28:14.158Z,8.50
2019-03-25T04:28:48.834Z,8.50
2019-03-25T04:29:23.461Z,8.50
2019-03-25T04:29:58.066Z,8.50
2019-03-25T04:30:32.626Z,8.50
2019-03-25T04:31:07.164Z,8.50
2019-03-25T04:31:41.678Z,8.40
2019-03-25T04:32:16.255Z,8.50
2019-03-25T04:32:50.765Z,8.40
2019-03-25T04:33:25.325Z,8.50
2019-03-25T04:33:59.836Z,8.50
2019-03-25T04:34:34.449Z,8.50
2019-03-25T04:35:09.222Z,8.50
2019-03-25T04:35:43.724Z,8.50
2019-03-25T04:36:18.226Z,8.50
2019-03-25T04:36:53.042Z,8.50
2019-03-25T04:37:27.620Z,8.50
2019-03-25T04:38:02.456Z,8.50
2019-03-25T04:38:37.051Z,8.50
2019-03-25T04:39:11.598Z,8.60
2019-03-25T04:39:46.092Z,8.60
2019-03-25T04:40:20.611Z,8.50
2019-03-25T04:40:55.215Z,8.50
2019-03-25T04:41:29.735Z,8.50
2019-03-25T04:42:04.303Z,8.50
2019-03-25T04:42:38.813Z,8.50
2019-03-25T04:43:13.398Z,8.50
2019-03-25T04:43:48.082Z,8.50
2019-03-25T04:44:22.685Z,8.50
2019-03-25T04:44:57.201Z,8.50
2019-03-25T04:45:31.774Z,8.40
2019-03-25T04:46:06.350Z,8.40
2019-03-25T04:46:40.875Z,8.50
2019-03-25T04:47:15.519Z,8.50
2019-03-25T04:47:50.032Z,8.50
2019-03-25T04:48:24.806Z,8.50
2019-03-25T04:48:59.300Z,8.40
2019-03-25T04:49:33.808Z,8.40
2019-03-25T04:50:08.365Z,8.40
2019-03-25T04:50:42.949Z,8.30
2019-03-25T04:51:17.813Z,8.20
2019-03-25T04:51:52.310Z,8.20
2019-03-25T04:52:26.853Z,8.20
2019-03-25T04:53:01.362Z,8.20
2019-03-25T04:53:36.265Z,8.20
2019-03-25T04:54:10.780Z,8.20
2019-03-25T04:54:45.355Z,8.20
2019-03-25T04:55:19.931Z,8.20
2019-03-25T04:55:54.448Z,8.20
2019-03-25T04:56:39.121Z,8.20
2019-03-25T04:57:05.213Z,8.20
2019-03-25T04:57:39.714Z,8.20
2019-03-25T04:58:14.349Z,8.10
2019-03-25T04:58:48.841Z,8.10
2019-03-25T04:59:23.348Z,8.20
2019-03-25T04:59:57.856Z,8.20
2019-03-25T05:00:34.466Z,8.20
2019-03-25T05:01:09.045Z,8.20
2019-03-25T05:01:43.624Z,8.20
2019-03-25T05:02:18.121Z,8.20
2019-03-25T05:02:52.621Z,8.30
2019-03-25T05:03:27.168Z,8.30
2019-03-25T05:04:01.717Z,8.30
2019-03-25T05:04:36.237Z,8.30
2019-03-25T05:05:10.905Z,8.30
2019-03-25T05:05:45.876Z,8.30
2019-03-25T05:06:20.755Z,8.30
2019-03-25T05:06:55.344Z,8.30
2019-03-25T05:07:30.552Z,8.20
2019-03-25T05:08:05.160Z,8.20
2019-03-25T05:08:39.655Z,8.20
2019-03-25T05:09:14.193Z,8.20
2019-03-25T05:09:48.703Z,8.30
2019-03-25T05:10:23.293Z,8.30
2019-03-25T05:10:57.797Z,8.30
2019-03-25T05:11:32.310Z,8.30
2019-03-25T05:12:07.133Z,8.30
2019-03-25T05:12:41.732Z,8.20
2019-03-25T05:13:16.261Z,8.20
2019-03-25T05:13:50.759Z,8.30
2019-03-25T05:14:25.256Z,8.30
2019-03-25T05:14:59.922Z,8.30
2019-03-25T05:15:34.424Z,8.30
2019-03-25T05:16:08.931Z,8.30
2019-03-25T05:16:43.515Z,8.30
2019-03-25T05:17:18.019Z,8.20
2019-03-25T05:17:52.545Z,8.20
2019-03-25T05:18:27.057Z,8.20
2019-03-25T05:19:01.658Z,8.20
2019-03-25T05:19:36.156Z,8.20
2019-03-25T05:20:10.917Z,8.20
2019-03-25T05:20:45.436Z,8.10
2019-03-25T05:21:19.948Z,8.10
2019-03-25T05:21:54.505Z,8.10
2019-03-25T05:22:29.028Z,8.10
2019-03-25T05:23:03.617Z,8.20
2019-03-25T05:23:38.210Z,8.10
2019-03-25T05:24:12.798Z,8.10
2019-03-25T05:24:47.372Z,8.10
2019-03-25T05:25:21.961Z,8.20
2019-03-25T05:25:56.493Z,8.10
2019-03-25T05:26:31.001Z,8.10
2019-03-25T05:27:05.573Z,8.10
2019-03-25T05:27:40.073Z,8.10
2019-03-25T05:28:14.591Z,8.10
2019-03-25T05:28:49.099Z,8.10
2019-03-25T05:29:23.670Z,8.20
2019-03-25T05:29:58.165Z,8.10
2019-03-25T05:30:32.704Z,8.10
2019-03-25T05:31:07.201Z,8.00
2019-03-25T05:31:41.731Z,8.10
2019-03-25T05:32:16.242Z,8.10
2019-03-25T05:32:50.743Z,8.10
2019-03-25T05:33:25.265Z,8.10
2019-03-25T05:33:59.903Z,8.00
2019-03-25T05:34:34.416Z,8.10
2019-03-25T05:35:09.049Z,8.00
2019-03-25T05:35:47.466Z,8.00
2019-03-25T05:36:21.994Z,8.00
2019-03-25T05:36:56.489Z,8.00
2019-03-25T05:37:30.998Z,8.00
2019-03-25T05:38:05.576Z,8.00
2019-03-25T05:38:40.147Z,8.00
2019-03-25T05:39:14.738Z,8.00
2019-03-25T05:39:49.342Z,8.00
2019-03-25T05:40:23.934Z,8.00
2019-03-25T05:40:58.445Z,8.00
2019-03-25T05:41:33.008Z,8.00
2019-03-25T05:42:07.555Z,8.00
2019-03-25T05:42:42.060Z,8.00
2019-03-25T05:43:16.552Z,8.00
2019-03-25T05:44:10.425Z,7.90
2019-03-25T05:44:44.949Z,7.90
2019-03-25T05:45:19.470Z,7.90
2019-03-25T05:45:53.963Z,7.90
2019-03-25T05:46:28.478Z,7.90
2019-03-25T05:47:03.002Z,7.90
2019-03-25T05:47:37.620Z,7.90
2019-03-25T05:48:12.217Z,7.90
2019-03-25T05:48:46.825Z,7.90
2019-03-25T05:49:21.343Z,7.90
2019-03-25T05:49:55.945Z,7.90
2019-03-25T05:50:31.410Z,7.90
2019-03-25T05:51:05.936Z,7.90
2019-03-25T05:51:40.645Z,7.90
2019-03-25T05:52:15.228Z,7.90
2019-03-25T05:52:49.769Z,7.80
2019-03-25T05:53:24.348Z,7.90
2019-03-25T05:53:58.917Z,7.90
2019-03-25T05:54:33.429Z,8.00
2019-03-25T05:55:08.206Z,8.00
2019-03-25T05:55:42.777Z,8.00
2019-03-25T05:56:17.375Z,8.00
2019-03-25T05:57:02.045Z,8.00
2019-03-25T05:57:28.086Z,8.00
2019-03-25T05:58:02.609Z,8.00
2019-03-25T05:58:37.381Z,8.00
2019-03-25T05:59:11.918Z,7.90
2019-03-25T05:59:46.442Z,8.00
2019-03-25T06:00:22.681Z,7.90
2019-03-25T06:00:58.628Z,7.90
2019-03-25T06:01:33.205Z,7.90
2019-03-25T06:02:07.715Z,7.90
2019-03-25T06:02:42.240Z,7.90
2019-03-25T06:03:16.831Z,7.90
2019-03-25T06:03:51.321Z,8.00
2019-03-25T06:04:25.825Z,8.00
2019-03-25T06:05:00.360Z,8.00
2019-03-25T06:05:34.969Z,8.00
2019-03-25T06:06:09.557Z,8.00
2019-03-25T06:06:44.095Z,8.10
2019-03-25T06:07:18.600Z,8.10
2019-03-25T06:07:53.180Z,8.10
2019-03-25T06:08:27.722Z,8.10
2019-03-25T06:09:02.302Z,8.00
2019-03-25T06:09:36.812Z,8.00
2019-03-25T06:10:12.260Z,8.00
2019-03-25T06:10:46.803Z,8.00
2019-03-25T06:11:21.426Z,8.00
2019-03-25T06:11:56.104Z,8.00
2019-03-25T06:12:30.629Z,7.90
2019-03-25T06:13:05.446Z,7.90
2019-03-25T06:13:39.957Z,7.90
2019-03-25T06:14:14.591Z,7.90
2019-03-25T06:14:49.181Z,7.90
2019-03-25T06:15:23.985Z,7.90
2019-03-25T06:15:58.746Z,7.90
2019-03-25T06:16:33.238Z,7.90
2019-03-25T06:17:07.812Z,7.90
2019-03-25T06:17:42.303Z,7.90
2019-03-25T06:18:16.809Z,7.90
2019-03-25T06:18:51.389Z,7.90
2019-03-25T06:19:25.893Z,7.90
2019-03-25T06:20:00.402Z,7.90
2019-03-25T06:20:34.926Z,7.90
2019-03-25T06:21:09.484Z,7.90
2019-03-25T06:21:44.026Z,8.00
2019-03-25T06:22:18.525Z,8.00
2019-03-25T06:22:53.293Z,8.00
2019-03-25T06:23:28.057Z,8.00
2019-03-25T06:24:02.629Z,8.10
2019-03-25T06:24:37.129Z,8.10
2019-03-25T06:25:12.041Z,8.10
2019-03-25T06:25:46.546Z,8.10
2019-03-25T06:26:21.038Z,8.10
2019-03-25T06:26:55.572Z,8.10
2019-03-25T06:27:30.140Z,8.10
2019-03-25T06:28:05.866Z,8.10
2019-03-25T06:28:40.473Z,8.10
2019-03-25T06:29:14.969Z,8.10
2019-03-25T06:29:49.479Z,8.10
2019-03-25T06:30:26.085Z,8.10
2019-03-25T06:31:00.656Z,8.10
2019-03-25T06:31:35.216Z,8.10
2019-03-25T06:32:10.209Z,8.10
2019-03-25T06:32:45.040Z,8.10
2019-03-25T06:33:19.639Z,8.10
2019-03-25T06:33:54.177Z,8.10
2019-03-25T06:34:28.759Z,8.00
2019-03-25T06:35:03.845Z,8.00
2019-03-25T06:35:38.430Z,7.90
2019-03-25T06:36:12.986Z,7.90
2019-03-25T06:36:47.490Z,7.80
2019-03-25T06:37:22.089Z,7.80
2019-03-25T06:37:56.599Z,7.80
2019-03-25T06:38:31.141Z,7.80
2019-03-25T06:39:06.825Z,7.80
2019-03-25T06:39:41.326Z,7.80
2019-03-25T06:40:15.897Z,7.80
2019-03-25T06:40:50.428Z,7.80
2019-03-25T06:41:24.940Z,7.80
2019-03-25T06:41:59.506Z,7.80
2019-03-25T06:42:34.021Z,7.80
2019-03-25T06:43:08.519Z,7.80
2019-03-25T06:43:43.084Z,7.80
2019-03-25T06:44:18.220Z,7.80
2019-03-25T06:44:52.789Z,7.80
2019-03-25T06:45:27.291Z,7.90
2019-03-25T06:46:01.781Z,7.90
2019-03-25T06:46:36.304Z,7.90
2019-03-25T06:47:10.884Z,7.90
2019-03-25T06:47:45.712Z,7.90
2019-03-25T06:48:20.220Z,7.90
2019-03-25T06:48:54.712Z,8.00
2019-03-25T06:49:29.787Z,7.90
2019-03-25T06:50:06.730Z,7.90
2019-03-25T06:50:41.317Z,7.90
2019-03-25T06:51:16.093Z,7.90
2019-03-25T06:51:50.706Z,7.80
2019-03-25T06:52:25.302Z,7.90
2019-03-25T06:52:59.873Z,7.90
2019-03-25T06:53:34.384Z,7.80
2019-03-25T06:54:08.887Z,7.90
2019-03-25T06:54:43.395Z,7.80
2019-03-25T06:55:18.048Z,7.80
2019-03-25T06:55:52.543Z,7.80
2019-03-25T06:56:27.050Z,7.80
2019-03-25T06:57:01.551Z,7.80
2019-03-25T06:57:38.495Z,7.80
2019-03-25T06:58:12.277Z,7.80
2019-03-25T06:58:46.842Z,7.80
2019-03-25T06:59:21.354Z,7.90
2019-03-25T06:59:57.413Z,7.80
2019-03-25T07:00:32.064Z,7.90
2019-03-25T07:01:06.583Z,7.90
2019-03-25T07:01:41.150Z,7.90
2019-03-25T07:02:15.712Z,7.80
2019-03-25T07:02:50.321Z,7.80
2019-03-25T07:03:29.851Z,7.80
2019-03-25T07:04:04.280Z,7.80
2019-03-25T07:04:38.797Z,7.80
2019-03-25T07:05:13.850Z,7.80
2019-03-25T07:05:48.500Z,7.80
2019-03-25T07:06:23.012Z,7.90
2019-03-25T07:06:57.628Z,7.90
2019-03-25T07:07:32.155Z,7.90
2019-03-25T07:08:06.754Z,7.90
2019-03-25T07:08:41.257Z,7.90
2019-03-25T07:09:15.838Z,7.90
2019-03-25T07:09:50.407Z,8.00
2019-03-25T07:10:33.048Z,8.00
2019-03-25T07:11:07.709Z,8.00
2019-03-25T07:11:42.404Z,8.00
2019-03-25T07:12:17.157Z,8.00
2019-03-25T07:12:51.648Z,8.00
2019-03-25T07:13:26.892Z,8.00
2019-03-25T07:14:01.380Z,8.00
2019-03-25T07:14:36.833Z,8.10
2019-03-25T07:15:11.579Z,8.10
2019-03-25T07:15:46.101Z,8.10
2019-03-25T07:16:20.595Z,8.10
2019-03-25T07:16:55.113Z,8.10
2019-03-25T07:17:29.641Z,8.10
2019-03-25T07:18:04.753Z,8.10
2019-03-25T07:18:39.330Z,8.10
2019-03-25T07:19:13.837Z,8.10
2019-03-25T07:19:48.348Z,8.10
2019-03-25T07:20:22.883Z,8.10
2019-03-25T07:20:57.397Z,8.10
2019-03-25T07:21:31.902Z,8.10
2019-03-25T07:22:06.417Z,8.10
2019-03-25T07:22:40.929Z,8.10
2019-03-25T07:23:15.441Z,8.10
2019-03-25T07:23:51.002Z,8.10
2019-03-25T07:24:25.584Z,8.00
2019-03-25T07:25:00.153Z,8.00
2019-03-25T07:25:34.970Z,8.00
2019-03-25T07:26:09.809Z,8.00
2019-03-25T07:26:44.312Z,8.00
2019-03-25T07:27:19.809Z,8.00
2019-03-25T07:27:54.321Z,8.00
2019-03-25T07:28:28.822Z,7.90
2019-03-25T07:29:03.340Z,8.00
2019-03-25T07:29:37.935Z,7.90
2019-03-25T07:30:12.583Z,8.00
2019-03-25T07:30:47.099Z,8.00
2019-03-25T07:31:21.612Z,8.00
2019-03-25T07:31:56.109Z,8.00
2019-03-25T07:32:30.785Z,7.90
2019-03-25T07:33:05.289Z,7.80
2019-03-25T07:33:39.896Z,7.80
2019-03-25T07:34:14.402Z,7.80
2019-03-25T07:34:48.895Z,7.70
2019-03-25T07:35:23.400Z,7.70
2019-03-25T07:35:57.915Z,7.60
2019-03-25T07:36:32.508Z,7.50
2019-03-25T07:37:07.439Z,7.50
2019-03-25T07:37:41.947Z,7.50